Santuari del Far - Susqueda





Hora UTC 17:05
Temperatura 3.5 ºC
Humedad 93.0 %
Presión 1012.2 hPa
Pluja 0.0 mm
Velocidad viento 4.8 km/h
Dirección viento N

Datos diarios 2021-12-04



Hora UTC (invierno +1h; verano +2h)
Temperatura (ºC) Humedad (%) Presión (hPa) Velocidad viento (km/h) Precipitación (mm)
Hora UTC Aire Humedad Presión Vel. Dir. Vel. Max Dir. Intent. máx 5 min.
00:00 4.0 70.0 1017.8 14.5 N 14.5 0.0
00:05 4.0 70.0 1018.1 17.7 N 22.5 0.0
00:10 3.9 71.0 1017.8 16.1 N 22.5 0.0
00:15 4.1 73.0 1017.8 16.1 N 20.9 0.0
00:20 3.9 74.0 1017.8 16.1 N 20.9 0.0
00:25 3.8 75.0 1017.7 16.1 N 20.9 0.0
00:30 3.8 73.0 1017.5 16.1 N 20.9 0.0
00:35 3.9 72.0 1017.4 14.5 N 19.3 0.0
00:40 4.1 70.0 1017.2 14.5 N 19.3 0.0
00:45 4.1 70.0 1017.0 19.3 N 19.3 0.0
00:50 4.3 66.0 1017.0 16.1 N 20.9 0.0
00:55 4.6 64.0 1017.1 16.1 N 22.5 0.0
01:05 4.9 63.0 1017.1 12.9 N 22.5 0.0
01:10 5.3 62.0 1016.8 14.5 N 24.1 0.0
01:15 5.6 61.0 1017.1 17.7 N 25.7 0.0
01:20 5.8 59.0 1017.0 16.1 N 30.6 0.0
01:25 6.0 59.0 1016.9 12.9 N 30.6 0.0
01:30 6.1 58.0 1016.8 14.5 N 19.3 0.0
01:35 6.2 59.0 1016.7 12.9 N 22.5 0.0
01:40 6.2 59.0 1016.8 12.9 N 24.1 0.0
01:45 6.4 59.0 1017.1 11.3 N 24.1 0.0
01:50 6.4 58.0 1017.1 9.7 N 19.3 0.0
01:55 6.2 61.0 1016.7 9.7 N 17.7 0.0
02:00 5.8 62.0 1016.7 11.3 N 16.1 0.0
02:05 5.5 63.0 1016.6 14.5 N 16.1 0.0
02:05 5.5 63.0 1016.6 11.3 N 19.3 0.0
02:15 5.3 64.0 1016.5 16.1 N 20.9 0.0
02:20 5.2 65.0 1016.6 14.5 N 20.9 0.0
02:25 4.8 66.0 1016.4 14.5 N 20.9 0.0
02:30 4.7 67.0 1016.4 14.5 N 20.9 0.0
02:35 4.6 67.0 1016.3 14.5 N 17.7 0.0
02:40 4.6 66.0 1016.4 14.5 N 17.7 0.0
02:45 4.6 66.0 1016.4 14.5 N 19.3 0.0
02:50 4.6 67.0 1016.3 12.9 N 20.9 0.0
02:55 4.4 67.0 1016.5 12.9 N 20.9 0.0
03:00 4.1 69.0 1016.3 11.3 N 20.9 0.0
03:05 4.1 68.0 1016.2 11.3 N 17.7 0.0
03:10 4.0 69.0 1016.1 12.9 N 16.1 0.0
03:15 3.8 70.0 1016.0 12.9 N 16.1 0.0
03:20 4.1 70.0 1015.9 14.5 N 17.7 0.0
03:25 4.4 68.0 1015.8 16.1 N 17.7 0.0
03:30 4.6 68.0 1015.8 12.9 N 19.3 0.0
03:35 4.3 69.0 1015.8 14.5 N 17.7 0.0
03:40 4.0 69.0 1015.7 24.1 N 24.1 0.0
03:45 4.0 69.0 1015.7 14.5 N 24.1 0.0
03:50 4.1 69.0 1015.8 11.3 N 25.7 0.0
03:50 4.1 69.0 1015.7 12.9 N 25.7 0.0
04:00 4.3 69.0 1015.7 12.9 N 24.1 0.0
04:05 4.6 69.0 1015.7 12.9 N 27.4 0.0
04:10 4.8 68.0 1015.5 12.9 N 25.7 0.0
04:15 5.1 67.0 1015.6 11.3 N 25.7 0.0
04:20 5.4 66.0 1015.5 16.1 N 24.1 0.0
04:25 5.6 65.0 1015.5 12.9 N 25.7 0.0
04:30 5.9 65.0 1015.7 12.9 N 27.4 0.0
04:35 5.8 64.0 1015.5 14.5 N 29.0 0.0
04:40 5.8 64.0 1015.5 22.5 N 27.4 0.0
04:45 5.8 65.0 1015.6 17.7 N 27.4 0.0
04:50 5.6 65.0 1015.5 11.3 N 27.4 0.0
04:55 5.4 66.0 1015.4 16.1 N 29.0 0.0
05:00 5.2 66.0 1015.3 11.3 N 29.0 0.0
05:05 4.9 67.0 1015.3 14.5 N 22.5 0.0
05:10 4.4 69.0 1015.1 14.5 N 17.7 0.0
05:15 4.1 71.0 1015.2 14.5 N 19.3 0.0
05:20 3.7 72.0 1015.1 9.7 N 19.3 0.0
05:25 3.5 73.0 1015.2 9.7 N 16.1 0.0
05:30 3.2 74.0 1015.1 14.5 N 20.9 0.0
05:35 3.6 74.0 1015.0 9.7 N 20.9 0.0
05:35 3.4 75.0 1014.9 11.3 N 16.1 0.0
05:45 2.6 79.0 1015.0 11.3 N 19.3 0.0
05:50 2.3 81.0 1015.0 9.7 N 19.3 0.0
05:55 2.1 82.0 1015.0 11.3 N 17.7 0.0
06:00 1.6 84.0 1014.9 11.3 N 17.7 0.0
06:05 1.6 86.0 1015.0 14.5 N 20.9 0.0
06:10 2.0 86.0 1015.0 12.9 N 20.9 0.0
06:15 2.3 84.0 1014.9 14.5 N 22.5 0.0
06:20 2.5 84.0 1014.8 17.7 N 27.4 0.0
06:25 2.8 82.0 1014.8 12.9 N 27.4 0.0
06:30 3.3 81.0 1014.9 22.5 N 27.4 0.0
06:35 3.7 79.0 1014.5 12.9 N 25.7 0.0
06:40 4.1 78.0 1014.7 11.3 N 24.1 0.0
06:45 4.2 76.0 1014.8 9.7 N 20.9 0.0
06:50 3.8 78.0 1014.8 8.0 N 14.5 0.0
06:55 3.1 80.0 1014.6 14.5 N 14.5 0.0
07:00 2.9 83.0 1014.7 11.3 N 19.3 0.0
07:05 3.3 81.0 1014.6 12.9 N 20.9 0.0
07:10 3.6 79.0 1014.7 16.1 N 20.9 0.0
07:15 3.7 80.0 1014.6 22.5 N 29.0 0.0
07:20 3.9 78.0 1014.6 24.1 N 29.0 0.0
07:20 3.9 78.0 1014.5 16.1 N 24.1 0.0
07:30 3.8 78.0 1014.5 11.3 N 22.5 0.0
07:35 3.8 77.0 1014.5 11.3 N 19.3 0.0
07:40 3.7 77.0 1014.7 8.0 N 19.3 0.0
07:45 3.1 80.0 1014.6 16.1 N 17.7 0.0
07:50 3.1 81.0 1014.4 9.7 N 17.7 0.0
07:55 3.0 81.0 1014.4 9.7 N 20.9 0.0
08:00 2.6 82.0 1014.5 9.7 N 12.9 0.0
08:05 2.1 84.0 1014.5 8.0 N 12.9 0.0
08:10 1.8 86.0 1014.3 12.9 N 12.9 0.0
08:15 1.7 88.0 1014.1 12.9 N 20.9 0.0
08:20 2.1 88.0 1014.2 16.1 N 22.5 0.0
08:25 2.6 87.0 1014.4 17.7 N 27.4 0.0
08:30 2.9 85.0 1014.0 16.1 N 27.4 0.0
08:35 2.9 84.0 1014.0 11.3 N 22.5 0.0
08:40 2.7 85.0 1013.9 11.3 N 20.9 0.0
08:45 2.7 87.0 1013.5 12.9 N 17.7 0.0
08:50 2.6 88.0 1013.5 12.9 N 17.7 0.0
08:55 2.6 88.0 1013.6 8.0 N 19.3 0.0
09:00 2.5 88.0 1013.9 16.1 N 20.9 0.0
09:05 2.5 89.0 1013.6 12.9 N 24.1 0.0
09:05 2.6 89.0 1013.4 12.9 N 24.1 0.0
09:15 2.7 89.0 1013.4 12.9 N 24.1 0.0
09:20 2.7 88.0 1013.5 16.1 N 24.1 0.0
09:25 2.7 89.0 1013.6 14.5 N 20.9 0.0
09:30 2.8 88.0 1013.8 9.7 N 27.4 0.0
09:35 2.8 88.0 1013.9 19.3 N 27.4 0.0
09:35 2.8 87.0 1013.6 9.7 N 22.5 0.0
09:45 0.0
09:50 0.0
09:55 0.0
10:00 2.6 88.0 1013.3 16.1 N 24.1 0.0
10:05 2.7 89.0 1013.2 9.7 N 20.9 0.0
10:10 2.7 88.0 1013.2 11.3 N 20.9 0.0
10:15 2.6 89.0 1013.2 12.9 N 22.5 0.0
10:20 2.5 89.0 1013.3 14.5 N 22.5 0.0
10:25 2.6 90.0 1013.3 17.7 N 27.4 0.0
10:30 2.8 90.0 1013.3 11.3 N 27.4 0.0
10:35 3.1 90.0 1013.3 12.9 N 22.5 0.0
10:40 3.0 89.0 1013.4 6.4 N 22.5 0.0
10:45 3.1 91.0 1013.3 6.4 N 22.5 0.0
10:50 3.3 90.0 1013.5 8.0 N 16.1 0.0
10:55 3.2 90.0 1013.5 8.0 N 16.1 0.0
11:00 3.1 90.0 1013.1 12.9 N 14.5 0.0
11:05 3.1 90.0 1013.4 14.5 N 24.1 0.0
11:10 3.0 90.0 1013.6 11.3 N 24.1 0.0
11:15 2.9 91.0 1013.4 11.3 N 24.1 0.0
11:20 3.0 91.0 1013.4 12.9 N 25.7 0.0
11:25 3.0 91.0 1013.2 11.3 N 25.7 0.0
11:30 3.3 92.0 1013.1 9.7 N 19.3 0.0
11:35 3.4 91.0 1013.1 9.7 N 16.1 0.0
11:40 3.6 91.0 1013.1 14.5 N 16.1 0.0
11:45 3.7 90.0 1013.4 8.0 N 17.7 0.0
11:50 3.8 90.0 1013.3 9.7 N 17.7 0.0
11:55 3.9 90.0 1013.1 9.7 N 14.5 0.0
12:00 4.0 89.0 1013.1 8.0 N 14.5 0.0
12:05 4.0 89.0 1013.2 8.0 N 12.9 0.0
12:10 4.0 89.0 1013.1 9.7 N 14.5 0.0
12:15 4.0 89.0 1013.2 6.4 N 12.9 0.0
12:20 4.1 89.0 1013.3 4.8 N 11.3 0.0
12:25 4.3 90.0 1013.2 3.2 N 11.3 0.0
12:30 4.4 89.0 1013.1 4.8 N 8.0 0.0
12:35 4.4 89.0 1012.7 6.4 N 8.0 0.0
12:40 4.7 87.0 1012.0 6.4 N 9.7 0.0
12:45 5.1 86.0 1012.4 3.2 N 8.0 0.0
12:50 5.3 86.0 1012.5 3.2 N 6.4 0.0
12:55 5.2 86.0 1012.9 8.0 N 11.3 0.0
13:00 5.0 86.0 1012.8 6.4 N 11.3 0.0
13:05 4.8 87.0 1013.0 4.8 N 9.7 0.0
13:10 4.8 87.0 1013.0 4.8 N 9.7 0.0
13:15 4.6 87.0 1012.9 6.4 N 11.3 0.0
13:20 4.5 88.0 1013.1 3.2 N 11.3 0.0
13:25 4.3 88.0 1013.0 6.4 N 9.7 0.0
13:25 4.2 89.0 1013.0 4.8 N 9.7 0.0
13:35 4.2 89.0 1012.9 6.4 N 12.9 0.0
13:40 4.2 89.0 1013.0 6.4 N 12.9 0.0
13:40 4.2 89.0 1013.0 4.8 N 9.7 0.0
13:50 4.2 89.0 1012.8 4.8 N 9.7 0.0
13:50 4.1 89.0 1012.8 8.0 N 9.7 0.0
13:55 4.1 89.0 1012.8 9.7 N 11.3 0.0
14:00 4.0 90.0 1012.7 9.7 N 12.9 0.0
14:05 3.9 90.0 1012.7 4.8 N 12.9 0.0
14:10 3.9 91.0 1012.6 6.4 N 11.3 0.0
14:15 3.9 91.0 1012.3 8.0 N 8.0 0.0
14:20 4.0 91.0 1012.3 9.7 N 9.7 0.0
14:25 4.0 91.0 1012.5 6.4 N 9.7 0.0
14:30 4.0 91.0 1012.4 4.8 N 9.7 0.0
14:35 3.9 91.0 1012.5 8.0 N 9.7 0.0
14:40 3.9 91.0 1012.4 6.4 N 9.7 0.0
14:45 4.1 90.0 1012.3 8.0 N 12.9 0.0
14:50 4.3 90.0 1012.4 6.4 N 12.9 0.0
14:55 4.4 89.0 1012.3 8.0 N 9.7 0.0
15:00 4.3 89.0 1012.3 8.0 N 9.7 0.0
15:05 4.2 89.0 1012.2 11.3 N 11.3 0.0
15:10 4.1 90.0 1012.3 11.3 N 11.3 0.0
15:15 4.0 90.0 1012.3 8.0 N 12.9 0.0
15:20 3.9 91.0 1012.2 11.3 N 12.9 0.0
15:25 3.9 91.0 1012.3 9.7 N 12.9 0.0
15:30 3.8 91.0 1011.8 6.4 N 12.9 0.0
15:35 3.8 91.0 1012.0 8.0 N 12.9 0.0
15:40 3.8 91.0 1012.0 9.7 N 12.9 0.0
15:50 3.7 92.0 1012.0 8.0 N 14.5 0.0
15:50 3.7 92.0 1012.0 12.9 N 14.5 0.0
15:55 3.7 92.0 1011.9 9.7 N 12.9 0.0
16:00 3.7 92.0 1011.9 8.0 N 12.9 0.0
16:05 3.8 92.0 1012.0 12.9 N 14.5 0.0
16:10 3.8 92.0 1012.2 9.7 N 16.1 0.0
16:15 3.8 92.0 1012.1 9.7 N 16.1 0.0
16:20 3.8 92.0 1012.1 11.3 N 14.5 0.0
16:25 3.8 92.0 1012.2 11.3 N 14.5 0.0
16:30 3.8 92.0 1012.2 9.7 N 14.5 0.0
16:35 3.8 92.0 1012.1 6.4 N 12.9 0.0
16:40 3.8 92.0 1012.0 9.7 N 11.3 0.0
16:45 3.7 92.0 1011.9 11.3 N 14.5 0.0
16:50 3.6 92.0 1012.1 8.0 N 14.5 0.0
16:55 3.6 92.0 1012.2 3.2 N 12.9 0.0
17:00 3.5 92.0 1012.3 8.0 N 16.1 0.0
17:05 3.5 93.0 1012.2 4.8 N 16.1 0.0
Máxima 6.4 93.0 1018.1 24.1 N 30.6 0.0
Mínima 1.5 58.0 1011.8
Total 0.0